sensor_id;sensor_type;location;lat;lon;timestamp;pressure;altitude;pressure_sealevel;temperature;humidity
78064;BME280;67429;51.596;-3.264;2023-07-30T00:01:15;98804.49;;;12.12;65.53
78064;BME280;67429;51.596;-3.264;2023-07-30T00:03:41;98806.90;;;12.55;64.56
78064;BME280;67429;51.596;-3.264;2023-07-30T00:06:06;98807.04;;;12.82;64.47
78064;BME280;67429;51.596;-3.264;2023-07-30T00:08:31;98802.66;;;12.79;64.51
78064;BME280;67429;51.596;-3.264;2023-07-30T00:10:57;98797.12;;;12.61;64.61
78064;BME280;67429;51.596;-3.264;2023-07-30T00:13:23;98799.17;;;12.58;65.04
78064;BME280;67429;51.596;-3.264;2023-07-30T00:15:47;98797.32;;;13.06;63.64
78064;BME280;67429;51.596;-3.264;2023-07-30T00:18:15;98803.33;;;13.11;63.07
78064;BME280;67429;51.596;-3.264;2023-07-30T00:20:41;98796.93;;;13.02;63.99
78064;BME280;67429;51.596;-3.264;2023-07-30T00:23:06;98798.80;;;13.56;62.75
78064;BME280;67429;51.596;-3.264;2023-07-30T00:25:32;98810.41;;;12.57;65.35
78064;BME280;67429;51.596;-3.264;2023-07-30T00:27:56;98798.53;;;13.02;64.44
78064;BME280;67429;51.596;-3.264;2023-07-30T00:30:22;98801.81;;;12.82;65.45
78064;BME280;67429;51.596;-3.264;2023-07-30T00:32:48;98799.18;;;12.93;65.72
78064;BME280;67429;51.596;-3.264;2023-07-30T00:35:12;98797.71;;;12.98;65.53
78064;BME280;67429;51.596;-3.264;2023-07-30T00:37:39;98804.39;;;12.82;65.77
78064;BME280;67429;51.596;-3.264;2023-07-30T00:40:04;98804.31;;;12.03;67.64
78064;BME280;67429;51.596;-3.264;2023-07-30T00:42:29;98804.52;;;12.67;66.19
78064;BME280;67429;51.596;-3.264;2023-07-30T00:44:54;98803.80;;;12.83;64.66
78064;BME280;67429;51.596;-3.264;2023-07-30T00:47:20;98808.50;;;12.25;65.89
78064;BME280;67429;51.596;-3.264;2023-07-30T00:49:45;98805.34;;;12.58;65.93
78064;BME280;67429;51.596;-3.264;2023-07-30T00:52:11;98808.46;;;12.34;66.40
78064;BME280;67429;51.596;-3.264;2023-07-30T00:54:37;98808.53;;;12.26;66.62
78064;BME280;67429;51.596;-3.264;2023-07-30T00:57:02;98806.92;;;13.14;64.30
78064;BME280;67429;51.596;-3.264;2023-07-30T00:59:28;98811.33;;;12.19;66.24
78064;BME280;67429;51.596;-3.264;2023-07-30T01:01:53;98821.15;;;12.28;67.16
78064;BME280;67429;51.596;-3.264;2023-07-30T01:04:18;98816.77;;;11.81;68.71
78064;BME280;67429;51.596;-3.264;2023-07-30T01:06:44;98813.81;;;11.87;69.08
78064;BME280;67429;51.596;-3.264;2023-07-30T01:09:12;98824.04;;;12.30;68.51
78064;BME280;67429;51.596;-3.264;2023-07-30T01:11:35;98816.63;;;12.15;68.17
78064;BME280;67429;51.596;-3.264;2023-07-30T01:14:01;98816.84;;;12.65;66.71
78064;BME280;67429;51.596;-3.264;2023-07-30T01:16:27;98817.25;;;12.76;66.93
78064;BME280;67429;51.596;-3.264;2023-07-30T01:18:51;98820.33;;;12.83;66.89
78064;BME280;67429;51.596;-3.264;2023-07-30T01:21:18;98823.93;;;12.70;66.70
78064;BME280;67429;51.596;-3.264;2023-07-30T01:23:42;98816.86;;;12.94;66.47
78064;BME280;67429;51.596;-3.264;2023-07-30T01:26:12;98822.17;;;12.38;68.72
78064;BME280;67429;51.596;-3.264;2023-07-30T01:28:39;98826.16;;;12.92;67.25
78064;BME280;67429;51.596;-3.264;2023-07-30T01:31:00;98818.87;;;13.22;66.33
78064;BME280;67429;51.596;-3.264;2023-07-30T01:33:24;98824.29;;;12.93;66.60
78064;BME280;67429;51.596;-3.264;2023-07-30T01:35:50;98828.97;;;12.17;68.70
78064;BME280;67429;51.596;-3.264;2023-07-30T01:38:16;98821.49;;;12.57;67.97
78064;BME280;67429;51.596;-3.264;2023-07-30T01:40:41;98823.11;;;11.91;69.38
78064;BME280;67429;51.596;-3.264;2023-07-30T01:43:07;98825.68;;;11.99;69.90
78064;BME280;67429;51.596;-3.264;2023-07-30T01:45:33;98819.75;;;12.15;69.63
78064;BME280;67429;51.596;-3.264;2023-07-30T01:47:57;98818.60;;;12.62;68.93
78064;BME280;67429;51.596;-3.264;2023-07-30T01:50:23;98821.74;;;12.72;68.16
78064;BME280;67429;51.596;-3.264;2023-07-30T01:52:49;98819.61;;;12.74;68.04
78064;BME280;67429;51.596;-3.264;2023-07-30T01:55:14;98819.80;;;13.35;66.89
78064;BME280;67429;51.596;-3.264;2023-07-30T01:57:39;98819.07;;;13.65;64.89
78064;BME280;67429;51.596;-3.264;2023-07-30T02:00:07;98815.78;;;13.54;65.16
78064;BME280;67429;51.596;-3.264;2023-07-30T02:02:30;98825.32;;;12.48;67.98
78064;BME280;67429;51.596;-3.264;2023-07-30T02:04:56;98824.43;;;12.43;67.90
78064;BME280;67429;51.596;-3.264;2023-07-30T02:07:21;98814.98;;;12.79;67.62
78064;BME280;67429;51.596;-3.264;2023-07-30T02:09:47;98822.11;;;12.74;66.85
78064;BME280;67429;51.596;-3.264;2023-07-30T02:12:12;98817.46;;;13.02;66.93
78064;BME280;67429;51.596;-3.264;2023-07-30T02:14:38;98828.20;;;12.61;67.82
78064;BME280;67429;51.596;-3.264;2023-07-30T02:17:04;98831.49;;;12.53;68.07
78064;BME280;67429;51.596;-3.264;2023-07-30T02:19:29;98832.48;;;12.65;67.58
78064;BME280;67429;51.596;-3.264;2023-07-30T02:21:55;98839.95;;;12.55;67.55
78064;BME280;67429;51.596;-3.264;2023-07-30T02:24:20;98834.69;;;12.66;66.75
78064;BME280;67429;51.596;-3.264;2023-07-30T02:26:46;98829.01;;;11.76;68.28
78064;BME280;67429;51.596;-3.264;2023-07-30T02:29:11;98834.01;;;11.87;69.13
78064;BME280;67429;51.596;-3.264;2023-07-30T02:31:37;98830.64;;;12.21;67.35
78064;BME280;67429;51.596;-3.264;2023-07-30T02:34:02;98828.04;;;12.08;66.91
78064;BME280;67429;51.596;-3.264;2023-07-30T02:36:28;98832.30;;;12.28;66.50
78064;BME280;67429;51.596;-3.264;2023-07-30T02:38:53;98830.26;;;12.79;65.74
78064;BME280;67429;51.596;-3.264;2023-07-30T02:41:19;98830.11;;;11.95;67.23
78064;BME280;67429;51.596;-3.264;2023-07-30T02:43:44;98828.94;;;12.12;66.44
78064;BME280;67429;51.596;-3.264;2023-07-30T02:46:11;98830.10;;;11.87;66.72
78064;BME280;67429;51.596;-3.264;2023-07-30T02:48:36;98829.10;;;11.88;66.84
78064;BME280;67429;51.596;-3.264;2023-07-30T02:51:01;98831.58;;;12.69;65.46
78064;BME280;67429;51.596;-3.264;2023-07-30T02:53:26;98828.43;;;12.04;66.94
78064;BME280;67429;51.596;-3.264;2023-07-30T02:55:52;98836.09;;;12.23;66.41
78064;BME280;67429;51.596;-3.264;2023-07-30T02:58:18;98835.31;;;12.37;66.29
78064;BME280;67429;51.596;-3.264;2023-07-30T03:00:43;98825.57;;;13.05;64.18
78064;BME280;67429;51.596;-3.264;2023-07-30T03:03:09;98820.45;;;12.52;64.00
78064;BME280;67429;51.596;-3.264;2023-07-30T03:05:34;98822.18;;;12.33;65.57
78064;BME280;67429;51.596;-3.264;2023-07-30T03:08:00;98817.67;;;12.46;65.41
78064;BME280;67429;51.596;-3.264;2023-07-30T03:10:25;98818.47;;;12.43;65.88
78064;BME280;67429;51.596;-3.264;2023-07-30T03:12:51;98812.28;;;12.99;64.40
78064;BME280;67429;51.596;-3.264;2023-07-30T03:15:23;98814.56;;;13.17;63.69
78064;BME280;67429;51.596;-3.264;2023-07-30T03:17:42;98818.66;;;12.63;63.54
78064;BME280;67429;51.596;-3.264;2023-07-30T03:20:08;98821.59;;;12.61;64.89
78064;BME280;67429;51.596;-3.264;2023-07-30T03:22:33;98812.88;;;12.91;63.23
78064;BME280;67429;51.596;-3.264;2023-07-30T03:24:59;98821.29;;;12.13;65.59
78064;BME280;67429;51.596;-3.264;2023-07-30T03:27:24;98818.42;;;12.77;63.94
78064;BME280;67429;51.596;-3.264;2023-07-30T03:29:50;98825.88;;;12.05;65.26
78064;BME280;67429;51.596;-3.264;2023-07-30T03:32:15;98830.31;;;12.55;63.96
78064;BME280;67429;51.596;-3.264;2023-07-30T03:34:42;98835.41;;;12.20;64.64
78064;BME280;67429;51.596;-3.264;2023-07-30T03:37:07;98837.53;;;12.75;63.95
78064;BME280;67429;51.596;-3.264;2023-07-30T03:39:32;98831.47;;;12.70;64.48
78064;BME280;67429;51.596;-3.264;2023-07-30T03:41:57;98831.78;;;13.33;63.13
78064;BME280;67429;51.596;-3.264;2023-07-30T03:44:23;98841.38;;;13.41;62.02
78064;BME280;67429;51.596;-3.264;2023-07-30T03:46:49;98837.38;;;13.29;62.47
78064;BME280;67429;51.596;-3.264;2023-07-30T03:49:14;98847.79;;;13.91;60.81
78064;BME280;67429;51.596;-3.264;2023-07-30T03:51:40;98843.70;;;13.43;61.30
78064;BME280;67429;51.596;-3.264;2023-07-30T03:54:05;98847.63;;;13.59;61.81
78064;BME280;67429;51.596;-3.264;2023-07-30T03:56:31;98846.79;;;13.93;61.39
78064;BME280;67429;51.596;-3.264;2023-07-30T03:58:56;98852.97;;;12.93;62.09
78064;BME280;67429;51.596;-3.264;2023-07-30T04:01:22;98857.99;;;12.63;63.94
78064;BME280;67429;51.596;-3.264;2023-07-30T04:03:47;98854.56;;;13.04;63.42
78064;BME280;67429;51.596;-3.264;2023-07-30T04:06:13;98855.29;;;12.38;64.99
78064;BME280;67429;51.596;-3.264;2023-07-30T04:08:38;98846.76;;;12.19;66.07
78064;BME280;67429;51.596;-3.264;2023-07-30T04:11:04;98850.42;;;12.99;62.95
78064;BME280;67429;51.596;-3.264;2023-07-30T04:13:29;98857.54;;;12.73;63.63
78064;BME280;67429;51.596;-3.264;2023-07-30T04:15:54;98859.48;;;12.43;63.90
78064;BME280;67429;51.596;-3.264;2023-07-30T04:18:20;98858.87;;;13.12;62.15
78064;BME280;67429;51.596;-3.264;2023-07-30T04:20:45;98853.94;;;12.55;63.48
78064;BME280;67429;51.596;-3.264;2023-07-30T04:23:11;98856.03;;;12.75;63.12
78064;BME280;67429;51.596;-3.264;2023-07-30T04:25:36;98870.96;;;12.86;63.38
78064;BME280;67429;51.596;-3.264;2023-07-30T04:28:02;98865.89;;;12.77;62.58
78064;BME280;67429;51.596;-3.264;2023-07-30T04:30:27;98874.03;;;13.20;61.75
78064;BME280;67429;51.596;-3.264;2023-07-30T04:32:52;98873.89;;;13.34;61.16
78064;BME280;67429;51.596;-3.264;2023-07-30T04:35:18;98879.47;;;12.44;64.13
78064;BME280;67429;51.596;-3.264;2023-07-30T04:37:43;98882.47;;;12.58;64.13
78064;BME280;67429;51.596;-3.264;2023-07-30T04:40:10;98883.42;;;12.60;62.70
78064;BME280;67429;51.596;-3.264;2023-07-30T04:42:34;98887.15;;;12.75;62.79
78064;BME280;67429;51.596;-3.264;2023-07-30T04:45:00;98890.50;;;12.57;62.31
78064;BME280;67429;51.596;-3.264;2023-07-30T04:47:25;98889.83;;;12.90;62.88
78064;BME280;67429;51.596;-3.264;2023-07-30T04:49:55;98891.37;;;12.15;64.39
78064;BME280;67429;51.596;-3.264;2023-07-30T04:52:17;98894.93;;;12.53;63.54
78064;BME280;67429;51.596;-3.264;2023-07-30T04:54:43;98903.94;;;12.63;62.94
78064;BME280;67429;51.596;-3.264;2023-07-30T04:57:07;98896.66;;;11.73;64.36
78064;BME280;67429;51.596;-3.264;2023-07-30T04:59:33;98904.08;;;13.16;63.08
78064;BME280;67429;51.596;-3.264;2023-07-30T05:02:00;98907.20;;;12.58;64.11
78064;BME280;67429;51.596;-3.264;2023-07-30T05:04:24;98893.42;;;12.33;64.44
78064;BME280;67429;51.596;-3.264;2023-07-30T05:06:50;98902.94;;;12.40;63.85
78064;BME280;67429;51.596;-3.264;2023-07-30T05:09:16;98896.94;;;13.01;62.88
78064;BME280;67429;51.596;-3.264;2023-07-30T05:11:48;98905.69;;;13.09;61.83
78064;BME280;67429;51.596;-3.264;2023-07-30T05:14:07;98904.36;;;12.60;63.25
78064;BME280;67429;51.596;-3.264;2023-07-30T05:16:31;98896.89;;;12.26;63.02
78064;BME280;67429;51.596;-3.264;2023-07-30T05:19:02;98905.14;;;12.34;64.27
78064;BME280;67429;51.596;-3.264;2023-07-30T05:21:22;98907.11;;;12.39;63.80
78064;BME280;67429;51.596;-3.264;2023-07-30T05:23:48;98906.71;;;12.09;64.54
78064;BME280;67429;51.596;-3.264;2023-07-30T05:26:13;98905.83;;;12.07;64.82
78064;BME280;67429;51.596;-3.264;2023-07-30T05:28:39;98904.12;;;11.92;64.94
78064;BME280;67429;51.596;-3.264;2023-07-30T05:31:04;98908.54;;;12.22;63.07
78064;BME280;67429;51.596;-3.264;2023-07-30T05:33:30;98908.48;;;11.96;63.29
78064;BME280;67429;51.596;-3.264;2023-07-30T05:35:56;98913.95;;;11.91;63.70
78064;BME280;67429;51.596;-3.264;2023-07-30T05:38:23;98915.21;;;11.94;63.66
78064;BME280;67429;51.596;-3.264;2023-07-30T05:40:47;98917.93;;;12.48;63.13
78064;BME280;67429;51.596;-3.264;2023-07-30T05:43:13;98917.62;;;12.04;63.65
78064;BME280;67429;51.596;-3.264;2023-07-30T05:45:39;98918.15;;;12.32;63.78
78064;BME280;67429;51.596;-3.264;2023-07-30T05:48:03;98913.38;;;12.32;62.71
78064;BME280;67429;51.596;-3.264;2023-07-30T05:50:28;98917.69;;;12.62;62.47
78064;BME280;67429;51.596;-3.264;2023-07-30T05:52:54;98917.35;;;12.34;62.94
78064;BME280;67429;51.596;-3.264;2023-07-30T05:55:20;98904.00;;;12.61;62.43
78064;BME280;67429;51.596;-3.264;2023-07-30T05:57:45;98904.14;;;13.21;61.19
78064;BME280;67429;51.596;-3.264;2023-07-30T06:00:11;98908.97;;;13.31;60.38
78064;BME280;67429;51.596;-3.264;2023-07-30T06:02:36;98910.74;;;13.52;60.66
78064;BME280;67429;51.596;-3.264;2023-07-30T06:05:02;98900.32;;;14.35;57.93
78064;BME280;67429;51.596;-3.264;2023-07-30T06:07:27;98908.99;;;14.56;57.11
78064;BME280;67429;51.596;-3.264;2023-07-30T06:09:53;98910.03;;;14.94;56.17
78064;BME280;67429;51.596;-3.264;2023-07-30T06:12:18;98908.30;;;15.46;55.32
78064;BME280;67429;51.596;-3.264;2023-07-30T06:14:44;98913.31;;;15.74;53.58
78064;BME280;67429;51.596;-3.264;2023-07-30T06:17:09;98915.14;;;16.70;53.06
78064;BME280;67429;51.596;-3.264;2023-07-30T06:19:36;98909.98;;;17.09;51.84
78064;BME280;67429;51.596;-3.264;2023-07-30T06:22:00;98912.65;;;16.52;51.73
78064;BME280;67429;51.596;-3.264;2023-07-30T06:24:25;98912.37;;;17.12;51.17
78064;BME280;67429;51.596;-3.264;2023-07-30T06:26:51;98912.30;;;17.52;50.80
78064;BME280;67429;51.596;-3.264;2023-07-30T06:29:16;98911.25;;;16.84;51.37
78064;BME280;67429;51.596;-3.264;2023-07-30T06:31:42;98921.46;;;16.41;52.20
78064;BME280;67429;51.596;-3.264;2023-07-30T06:34:08;98921.78;;;15.85;53.73
78064;BME280;67429;51.596;-3.264;2023-07-30T06:36:33;98919.88;;;15.01;55.77
78064;BME280;67429;51.596;-3.264;2023-07-30T06:38:57;98919.34;;;14.60;56.77
78064;BME280;67429;51.596;-3.264;2023-07-30T06:41:25;98916.79;;;13.01;61.10
78064;BME280;67429;51.596;-3.264;2023-07-30T06:43:49;98916.04;;;13.40;61.74
78064;BME280;67429;51.596;-3.264;2023-07-30T06:46:14;98911.62;;;14.09;59.24
78064;BME280;67429;51.596;-3.264;2023-07-30T06:48:39;98913.14;;;14.14;58.94
78064;BME280;67429;51.596;-3.264;2023-07-30T06:51:07;98909.97;;;15.30;56.73
78064;BME280;67429;51.596;-3.264;2023-07-30T06:53:31;98917.48;;;14.59;57.35
78064;BME280;67429;51.596;-3.264;2023-07-30T06:55:57;98917.14;;;14.83;56.87
78064;BME280;67429;51.596;-3.264;2023-07-30T06:58:21;98917.44;;;14.62;57.56
78064;BME280;67429;51.596;-3.264;2023-07-30T07:00:47;98914.49;;;15.68;55.33
78064;BME280;67429;51.596;-3.264;2023-07-30T07:03:12;98920.61;;;16.02;54.17
78064;BME280;67429;51.596;-3.264;2023-07-30T07:05:38;98920.96;;;15.30;54.66
78064;BME280;67429;51.596;-3.264;2023-07-30T07:08:04;98924.51;;;15.60;54.61
78064;BME280;67429;51.596;-3.264;2023-07-30T07:10:29;98928.37;;;16.27;53.12
78064;BME280;67429;51.596;-3.264;2023-07-30T07:12:54;98928.73;;;16.34;52.61
78064;BME280;67429;51.596;-3.264;2023-07-30T07:15:20;98925.74;;;16.00;52.95
78064;BME280;67429;51.596;-3.264;2023-07-30T07:17:45;98921.73;;;16.58;52.71
78064;BME280;67429;51.596;-3.264;2023-07-30T07:20:11;98923.22;;;16.52;52.38
78064;BME280;67429;51.596;-3.264;2023-07-30T07:22:36;98924.48;;;15.80;54.10
78064;BME280;67429;51.596;-3.264;2023-07-30T07:25:02;98926.02;;;15.67;54.15
78064;BME280;67429;51.596;-3.264;2023-07-30T07:27:27;98926.79;;;15.21;54.31
78064;BME280;67429;51.596;-3.264;2023-07-30T07:29:53;98930.97;;;16.29;54.24
78064;BME280;67429;51.596;-3.264;2023-07-30T07:32:18;98939.88;;;15.47;55.11
78064;BME280;67429;51.596;-3.264;2023-07-30T07:34:46;98939.33;;;15.72;54.53
78064;BME280;67429;51.596;-3.264;2023-07-30T07:37:09;98951.43;;;15.28;55.42
78064;BME280;67429;51.596;-3.264;2023-07-30T07:39:35;98953.06;;;14.72;56.13
78064;BME280;67429;51.596;-3.264;2023-07-30T07:42:00;98952.84;;;15.11;55.61
78064;BME280;67429;51.596;-3.264;2023-07-30T07:44:26;98948.84;;;14.95;56.27
78064;BME280;67429;51.596;-3.264;2023-07-30T07:46:51;98949.24;;;15.13;57.11
78064;BME280;67429;51.596;-3.264;2023-07-30T07:49:17;98948.70;;;16.24;54.75
78064;BME280;67429;51.596;-3.264;2023-07-30T07:51:42;98952.62;;;16.86;52.86
78064;BME280;67429;51.596;-3.264;2023-07-30T07:54:08;98950.48;;;16.02;53.91
78064;BME280;67429;51.596;-3.264;2023-07-30T07:56:33;98944.99;;;16.17;54.56
78064;BME280;67429;51.596;-3.264;2023-07-30T07:58:58;98951.48;;;16.30;53.56
78064;BME280;67429;51.596;-3.264;2023-07-30T08:01:24;98955.14;;;16.43;52.89
78064;BME280;67429;51.596;-3.264;2023-07-30T08:03:49;98959.35;;;16.35;52.79
78064;BME280;67429;51.596;-3.264;2023-07-30T08:06:15;98957.25;;;15.54;54.73
78064;BME280;67429;51.596;-3.264;2023-07-30T08:08:40;98957.12;;;16.47;53.41
78064;BME280;67429;51.596;-3.264;2023-07-30T08:11:06;98954.43;;;16.02;53.77
78064;BME280;67429;51.596;-3.264;2023-07-30T08:13:31;98958.41;;;14.92;57.25
78064;BME280;67429;51.596;-3.264;2023-07-30T08:15:57;98955.13;;;14.61;59.33
78064;BME280;67429;51.596;-3.264;2023-07-30T08:18:23;98960.46;;;14.95;59.60
78064;BME280;67429;51.596;-3.264;2023-07-30T08:20:49;98957.77;;;13.95;63.49
78064;BME280;67429;51.596;-3.264;2023-07-30T08:23:13;98959.63;;;13.85;64.40
78064;BME280;67429;51.596;-3.264;2023-07-30T08:25:39;98962.93;;;14.67;63.15
78064;BME280;67429;51.596;-3.264;2023-07-30T08:28:04;98956.88;;;15.70;61.06
78064;BME280;67429;51.596;-3.264;2023-07-30T08:30:30;98955.50;;;15.68;60.08
78064;BME280;67429;51.596;-3.264;2023-07-30T08:32:55;98962.16;;;16.32;58.35
78064;BME280;67429;51.596;-3.264;2023-07-30T08:35:20;98959.19;;;16.57;58.06
78064;BME280;67429;51.596;-3.264;2023-07-30T08:37:46;98956.88;;;16.60;58.49
78064;BME280;67429;51.596;-3.264;2023-07-30T08:40:11;98956.97;;;16.46;58.87
78064;BME280;67429;51.596;-3.264;2023-07-30T08:42:36;98957.35;;;15.60;61.07
78064;BME280;67429;51.596;-3.264;2023-07-30T08:45:06;98956.04;;;15.54;61.30
78064;BME280;67429;51.596;-3.264;2023-07-30T08:47:27;98958.51;;;16.37;60.90
78064;BME280;67429;51.596;-3.264;2023-07-30T08:49:53;98951.93;;;15.86;62.12
78064;BME280;67429;51.596;-3.264;2023-07-30T08:52:19;98955.12;;;15.72;61.94
78064;BME280;67429;51.596;-3.264;2023-07-30T08:54:45;98949.66;;;15.69;62.02
78064;BME280;67429;51.596;-3.264;2023-07-30T08:57:09;98958.46;;;16.55;60.50
78064;BME280;67429;51.596;-3.264;2023-07-30T08:59:39;98958.04;;;15.98;60.52
78064;BME280;67429;51.596;-3.264;2023-07-30T09:02:00;98954.74;;;16.19;60.47
78064;BME280;67429;51.596;-3.264;2023-07-30T09:04:26;98954.37;;;16.48;60.23
78064;BME280;67429;51.596;-3.264;2023-07-30T09:06:51;98951.97;;;15.96;61.01
78064;BME280;67429;51.596;-3.264;2023-07-30T09:09:17;98957.32;;;15.71;61.74
78064;BME280;67429;51.596;-3.264;2023-07-30T09:11:42;98955.71;;;15.89;62.02
78064;BME280;67429;51.596;-3.264;2023-07-30T09:14:08;98956.57;;;16.06;60.65
78064;BME280;67429;51.596;-3.264;2023-07-30T09:16:33;98954.78;;;15.61;62.16
78064;BME280;67429;51.596;-3.264;2023-07-30T09:18:59;98956.17;;;15.87;61.24
78064;BME280;67429;51.596;-3.264;2023-07-30T09:21:30;98957.47;;;16.35;61.04
78064;BME280;67429;51.596;-3.264;2023-07-30T09:23:50;98959.27;;;15.86;60.54
78064;BME280;67429;51.596;-3.264;2023-07-30T09:26:15;98959.97;;;16.96;58.65
78064;BME280;67429;51.596;-3.264;2023-07-30T09:28:41;98958.20;;;16.66;58.65
78064;BME280;67429;51.596;-3.264;2023-07-30T09:31:07;98962.52;;;15.87;61.19
78064;BME280;67429;51.596;-3.264;2023-07-30T09:33:32;98959.85;;;16.43;60.15
78064;BME280;67429;51.596;-3.264;2023-07-30T09:35:58;98958.88;;;16.14;60.56
78064;BME280;67429;51.596;-3.264;2023-07-30T09:38:23;98965.31;;;15.90;60.95
78064;BME280;67429;51.596;-3.264;2023-07-30T09:40:49;98965.45;;;15.75;61.71
78064;BME280;67429;51.596;-3.264;2023-07-30T09:43:14;98972.94;;;16.46;60.52
78064;BME280;67429;51.596;-3.264;2023-07-30T09:45:39;98970.06;;;16.11;60.90
78064;BME280;67429;51.596;-3.264;2023-07-30T09:48:06;98966.78;;;15.45;62.14
78064;BME280;67429;51.596;-3.264;2023-07-30T09:50:31;98967.62;;;16.09;61.13
78064;BME280;67429;51.596;-3.264;2023-07-30T09:52:58;98965.87;;;16.55;59.42
78064;BME280;67429;51.596;-3.264;2023-07-30T09:55:22;98965.67;;;14.88;64.25
78064;BME280;67429;51.596;-3.264;2023-07-30T09:57:47;98962.17;;;14.51;66.03
78064;BME280;67429;51.596;-3.264;2023-07-30T10:00:12;98963.33;;;14.87;65.94
78064;BME280;67429;51.596;-3.264;2023-07-30T10:02:39;98960.40;;;15.12;64.31
78064;BME280;67429;51.596;-3.264;2023-07-30T10:05:08;98957.00;;;15.67;63.31
78064;BME280;67429;51.596;-3.264;2023-07-30T10:07:30;98959.68;;;16.28;61.50
78064;BME280;67429;51.596;-3.264;2023-07-30T10:09:58;98960.65;;;16.22;61.54
78064;BME280;67429;51.596;-3.264;2023-07-30T10:12:24;98959.37;;;15.68;62.00
78064;BME280;67429;51.596;-3.264;2023-07-30T10:14:46;98958.82;;;15.15;64.14
78064;BME280;67429;51.596;-3.264;2023-07-30T10:17:11;98959.70;;;16.33;63.04
78064;BME280;67429;51.596;-3.264;2023-07-30T10:19:37;98958.46;;;16.56;60.97
78064;BME280;67429;51.596;-3.264;2023-07-30T10:24:27;98969.53;;;17.02;59.60
78064;BME280;67429;51.596;-3.264;2023-07-30T10:26:53;98967.02;;;16.52;61.34
78064;BME280;67429;51.596;-3.264;2023-07-30T10:29:20;98970.53;;;17.44;59.92
78064;BME280;67429;51.596;-3.264;2023-07-30T10:31:49;98972.88;;;17.26;58.75
78064;BME280;67429;51.596;-3.264;2023-07-30T10:34:10;98970.24;;;18.01;57.49
78064;BME280;67429;51.596;-3.264;2023-07-30T10:36:40;98977.94;;;17.72;57.82
78064;BME280;67429;51.596;-3.264;2023-07-30T10:39:12;98972.56;;;16.72;59.98
78064;BME280;67429;51.596;-3.264;2023-07-30T10:41:25;98977.45;;;17.17;58.74
78064;BME280;67429;51.596;-3.264;2023-07-30T10:43:51;98972.48;;;16.71;60.62
78064;BME280;67429;51.596;-3.264;2023-07-30T10:46:17;98975.11;;;16.94;61.02
78064;BME280;67429;51.596;-3.264;2023-07-30T10:48:43;98977.08;;;17.11;60.20
78064;BME280;67429;51.596;-3.264;2023-07-30T10:51:08;98974.13;;;17.29;59.75
78064;BME280;67429;51.596;-3.264;2023-07-30T10:53:32;98975.27;;;16.88;60.22
78064;BME280;67429;51.596;-3.264;2023-07-30T10:55:59;98972.63;;;17.08;60.43
78064;BME280;67429;51.596;-3.264;2023-07-30T10:58:24;98970.41;;;16.45;61.17
78064;BME280;67429;51.596;-3.264;2023-07-30T11:00:49;98969.74;;;16.08;62.56
78064;BME280;67429;51.596;-3.264;2023-07-30T11:03:13;98969.63;;;16.04;62.42
78064;BME280;67429;51.596;-3.264;2023-07-30T11:05:39;98969.85;;;16.68;61.32
78064;BME280;67429;51.596;-3.264;2023-07-30T11:08:04;98972.99;;;17.30;60.17
78064;BME280;67429;51.596;-3.264;2023-07-30T11:10:30;98974.52;;;17.43;59.44
78064;BME280;67429;51.596;-3.264;2023-07-30T11:12:57;98969.38;;;17.59;59.32
78064;BME280;67429;51.596;-3.264;2023-07-30T11:15:21;98969.53;;;17.54;59.61
78064;BME280;67429;51.596;-3.264;2023-07-30T11:17:46;98969.04;;;17.01;61.15
78064;BME280;67429;51.596;-3.264;2023-07-30T11:20:22;98971.38;;;17.33;60.73
78064;BME280;67429;51.596;-3.264;2023-07-30T11:22:37;98972.97;;;18.34;58.16
78064;BME280;67429;51.596;-3.264;2023-07-30T11:25:03;98969.55;;;16.96;59.96
78064;BME280;67429;51.596;-3.264;2023-07-30T11:27:28;98967.94;;;16.77;61.66
78064;BME280;67429;51.596;-3.264;2023-07-30T11:29:54;98968.28;;;16.77;62.55
78064;BME280;67429;51.596;-3.264;2023-07-30T11:32:19;98968.84;;;17.54;62.16
78064;BME280;67429;51.596;-3.264;2023-07-30T11:34:45;98964.80;;;16.90;62.38
78064;BME280;67429;51.596;-3.264;2023-07-30T11:37:10;98966.05;;;17.70;61.19
78064;BME280;67429;51.596;-3.264;2023-07-30T11:39:36;98958.71;;;16.78;62.63
78064;BME280;67429;51.596;-3.264;2023-07-30T11:42:01;98960.99;;;16.97;62.80
78064;BME280;67429;51.596;-3.264;2023-07-30T11:44:31;98959.93;;;17.52;62.75
78064;BME280;67429;51.596;-3.264;2023-07-30T11:46:53;98961.21;;;17.31;61.94
78064;BME280;67429;51.596;-3.264;2023-07-30T11:49:18;98955.66;;;16.74;63.73
78064;BME280;67429;51.596;-3.264;2023-07-30T11:51:43;98956.61;;;16.74;63.71
78064;BME280;67429;51.596;-3.264;2023-07-30T11:54:18;98959.71;;;15.86;64.74
78064;BME280;67429;51.596;-3.264;2023-07-30T11:56:34;98958.94;;;16.83;63.22
78064;BME280;67429;51.596;-3.264;2023-07-30T11:59:01;98963.20;;;16.80;63.61
78064;BME280;67429;51.596;-3.264;2023-07-30T12:01:26;98962.01;;;16.18;65.38
78064;BME280;67429;51.596;-3.264;2023-07-30T12:03:53;98959.22;;;16.59;64.67
78064;BME280;67429;51.596;-3.264;2023-07-30T12:06:16;98958.36;;;16.84;64.97
78064;BME280;67429;51.596;-3.264;2023-07-30T12:08:42;98962.13;;;15.77;66.81
78064;BME280;67429;51.596;-3.264;2023-07-30T12:11:08;98956.62;;;16.94;64.78
78064;BME280;67429;51.596;-3.264;2023-07-30T12:13:33;98953.65;;;15.99;67.36
78064;BME280;67429;51.596;-3.264;2023-07-30T12:15:59;98952.94;;;15.49;68.74
78064;BME280;67429;51.596;-3.264;2023-07-30T12:18:24;98961.07;;;15.65;69.82
78064;BME280;67429;51.596;-3.264;2023-07-30T12:20:49;98961.10;;;15.08;72.73
78064;BME280;67429;51.596;-3.264;2023-07-30T12:23:14;98957.73;;;15.21;73.31
78064;BME280;67429;51.596;-3.264;2023-07-30T12:25:40;98972.71;;;15.40;72.35
78064;BME280;67429;51.596;-3.264;2023-07-30T12:28:05;98966.21;;;14.89;74.36
78064;BME280;67429;51.596;-3.264;2023-07-30T12:30:33;98958.82;;;14.13;76.64
78064;BME280;67429;51.596;-3.264;2023-07-30T12:32:57;98957.49;;;13.90;77.41
78064;BME280;67429;51.596;-3.264;2023-07-30T12:35:22;98962.08;;;14.76;75.97
78064;BME280;67429;51.596;-3.264;2023-07-30T12:37:47;98961.45;;;14.11;76.71
78064;BME280;67429;51.596;-3.264;2023-07-30T12:40:13;98973.37;;;14.24;76.25
78064;BME280;67429;51.596;-3.264;2023-07-30T12:42:39;98975.42;;;13.79;78.72